createdAt,value
2017-01-04T00:00:07.067Z,98.1
2017-01-04T00:01:06.637Z,98.1
2017-01-04T00:02:06.979Z,98.38
2017-01-04T00:03:06.551Z,98.28
2017-01-04T00:04:06.892Z,98.75
2017-01-04T00:05:06.848Z,98.66
2017-01-04T00:06:06.807Z,98.38
2017-01-04T00:07:06.763Z,98.66
2017-01-04T00:08:06.715Z,98.28
2017-01-04T00:09:06.675Z,98.75
2017-01-04T00:10:06.629Z,98.47
2017-01-04T00:11:06.588Z,98
2017-01-04T00:12:06.157Z,98.85
2017-01-04T00:13:06.501Z,98.28
2017-01-04T00:14:06.073Z,98.19
2017-01-04T00:15:06.414Z,98.38
2017-01-04T00:16:05.986Z,98.47
2017-01-04T00:17:06.325Z,98.61
2017-01-04T00:18:06.284Z,98.57
2017-01-04T00:19:05.853Z,98.42
2017-01-04T00:20:06.197Z,99.08
2017-01-04T00:21:05.767Z,98.8
2017-01-04T00:22:06.108Z,99.32
2017-01-04T00:23:06.065Z,98.71
2017-01-04T00:24:06.022Z,98.94
2017-01-04T00:25:05.982Z,99.22
2017-01-04T00:26:05.549Z,99.13
2017-01-04T00:27:05.891Z,99.22
2017-01-04T00:28:05.846Z,99.22
2017-01-04T00:29:05.802Z,99.32
2017-01-04T00:30:05.372Z,98.94
2017-01-04T00:31:05.717Z,99.79
2017-01-04T00:32:05.288Z,99.88
2017-01-04T00:33:05.644Z,99.88
2017-01-04T00:34:05.583Z,99.79
2017-01-04T00:35:05.543Z,99.88
2017-01-04T00:36:05.497Z,99.79
2017-01-04T00:37:05.070Z,99.6
2017-01-04T00:38:05.024Z,99.7
2017-01-04T00:39:05.366Z,99.79
2017-01-04T00:40:05.324Z,99.51
2017-01-04T00:41:05.278Z,99.99
2017-01-04T00:42:05.238Z,99.98
2017-01-04T00:43:05.187Z,99.98
2017-01-04T00:44:05.147Z,99.79
2017-01-04T00:45:04.718Z,99.88
2017-01-04T00:46:05.066Z,99.79
2017-01-04T00:47:04.634Z,99.99
2017-01-04T00:48:04.590Z,99.99
2017-01-04T00:49:04.928Z,99.6
2017-01-04T00:50:04.501Z,99.98
2017-01-04T00:51:04.843Z,99.98
2017-01-04T00:52:04.799Z,99.99
2017-01-04T00:53:04.370Z,99.98
2017-01-04T00:54:04.714Z,99.98
2017-01-04T00:55:04.282Z,99.79
2017-01-04T00:56:04.627Z,99.88
2017-01-04T00:57:04.581Z,99.6
2017-01-04T00:58:04.538Z,99.79
2017-01-04T00:59:04.495Z,99.99
2017-01-04T01:00:04.450Z,99.98
2017-01-04T01:01:04.408Z,99.98
2017-01-04T01:02:04.367Z,99.98
2017-01-04T01:03:03.933Z,99.99
2017-01-04T01:04:04.279Z,99.6
2017-01-04T01:05:04.236Z,99.7
2017-01-04T01:06:04.188Z,99.98
2017-01-04T01:07:04.147Z,99.79
2017-01-04T01:08:03.716Z,99.99
2017-01-04T01:09:04.055Z,99.99
2017-01-04T01:10:04.040Z,99.79
2017-01-04T01:11:03.585Z,99.6
2017-01-04T01:12:03.544Z,99.79
2017-01-04T01:13:03.884Z,99.7
2017-01-04T01:14:03.460Z,99.79
2017-01-04T01:15:03.408Z,99.79
2017-01-04T01:16:03.750Z,99.51
2017-01-04T01:17:03.712Z,99.98
2017-01-04T01:18:03.280Z,99.51
2017-01-04T01:19:03.237Z,99.79
2017-01-04T01:20:03.581Z,99.51
2017-01-04T01:21:03.538Z,99.6
2017-01-04T01:22:03.114Z,99.6
2017-01-04T01:23:03.062Z,99.88
2017-01-04T01:24:03.403Z,99.6
2017-01-04T01:25:03.361Z,98.94
2017-01-04T01:26:02.931Z,99.22
2017-01-04T01:27:03.272Z,99.41
2017-01-04T01:28:02.846Z,98.66
2017-01-04T01:29:03.183Z,98.85
2017-01-04T01:30:02.756Z,98.94
2017-01-04T01:31:02.712Z,98.85
2017-01-04T01:32:02.672Z,98.94
2017-01-04T01:33:02.626Z,98.38
2017-01-04T01:34:02.970Z,98.47
2017-01-04T01:35:02.538Z,99.32
2017-01-04T01:36:02.496Z,98.85
2017-01-04T01:37:02.457Z,99.13
2017-01-04T01:38:02.804Z,99.04
2017-01-04T01:39:02.943Z,98.66
2017-01-04T01:40:03.151Z,98.75
2017-01-04T01:41:02.282Z,99.04
2017-01-04T01:42:02.622Z,99.13
2017-01-04T01:43:02.196Z,98.85
2017-01-04T01:44:02.534Z,98.57
2017-01-04T01:45:02.489Z,98.66
2017-01-04T01:46:02.448Z,98.66
2017-01-04T01:47:02.399Z,99.04
2017-01-04T01:48:02.358Z,99.13
2017-01-04T01:49:02.316Z,99.41
2017-01-04T01:50:02.269Z,99.22
2017-01-04T01:51:01.842Z,99.04
2017-01-04T01:52:02.182Z,99.04
2017-01-04T01:53:02.139Z,99.13
2017-01-04T01:54:01.713Z,99.22
2017-01-04T01:55:01.665Z,99.41
2017-01-04T01:56:02.006Z,99.32
2017-01-04T01:57:01.963Z,99.04
2017-01-04T01:58:01.929Z,99.22
2017-01-04T01:59:01.876Z,99.22
2017-01-04T02:00:01.449Z,99.22
2017-01-04T02:01:01.405Z,99.22
2017-01-04T02:02:01.745Z,99.13
2017-01-04T02:03:01.707Z,99.22
2017-01-04T02:04:01.656Z,99.13
2017-01-04T02:05:01.616Z,99.04
2017-01-04T02:06:01.575Z,99.13
2017-01-04T02:07:01.527Z,99.04
2017-01-04T02:08:01.485Z,99.32
2017-01-04T02:09:01.440Z,99.13
2017-01-04T02:10:01.013Z,99.13
2017-01-04T02:11:01.353Z,99.22
2017-01-04T02:12:01.310Z,99.04
2017-01-04T02:13:00.880Z,98.66
2017-01-04T02:14:01.222Z,98.75
2017-01-04T02:15:01.211Z,98.75
2017-01-04T02:16:01.135Z,99.04
2017-01-04T02:17:01.096Z,98.75
2017-01-04T02:18:01.050Z,99.13
2017-01-04T02:19:01.007Z,99.04
2017-01-04T02:20:00.964Z,98.94
2017-01-04T02:21:00.916Z,98.85
2017-01-04T02:22:00.874Z,98.75
2017-01-04T02:23:00.830Z,99.04
2017-01-04T02:24:00.405Z,99.13
2017-01-04T02:25:00.745Z,98.85
2017-01-04T02:26:00.701Z,99.13
2017-01-04T02:27:00.270Z,98.85
2017-01-04T02:28:00.643Z,98.94
2017-01-04T02:29:00.572Z,99.13
2017-01-04T02:30:00.143Z,98.75
2017-01-04T02:31:00.482Z,98.75
2017-01-04T02:32:00.054Z,98.66
2017-01-04T02:33:00.395Z,98.94
2017-01-04T02:34:00.354Z,99.04
2017-01-04T02:35:00.317Z,99.22
2017-01-04T02:36:00.291Z,98.94
2017-01-04T02:37:00.238Z,98.94
2017-01-04T02:38:00.176Z,99.27
2017-01-04T02:39:00.143Z,99.22
2017-01-04T02:40:00.099Z,98.85
2017-01-04T02:41:00.045Z,98.85
2017-01-04T02:41:59.616Z,98.75
2017-01-04T02:42:59.963Z,98.99
2017-01-04T02:43:59.919Z,98.99
2017-01-04T02:44:59.872Z,99.08
2017-01-04T02:45:59.830Z,98.52
2017-01-04T02:46:59.788Z,98.33
2017-01-04T02:47:59.746Z,98.61
2017-01-04T02:48:59.698Z,98.43
2017-01-04T02:49:59.658Z,98.33
2017-01-04T02:50:59.615Z,98.43
2017-01-04T02:51:59.571Z,98.61
2017-01-04T02:52:59.525Z,98.33
2017-01-04T02:53:59.485Z,98.61
2017-01-04T02:54:59.439Z,98.24
2017-01-04T02:55:59.394Z,98.43
2017-01-04T02:56:59.351Z,98.33
2017-01-04T02:57:59.309Z,98.33
2017-01-04T02:58:59.266Z,98.61
2017-01-04T02:59:59.222Z,98.71
2017-01-04T03:00:59.180Z,98.43
2017-01-04T03:01:59.138Z,98.24
2017-01-04T03:02:58.706Z,98.52
2017-01-04T03:03:59.049Z,98.24
2017-01-04T03:04:59.004Z,98.24
2017-01-04T03:05:58.577Z,98.24
2017-01-04T03:06:58.919Z,98.24
2017-01-04T03:07:58.879Z,98.24
2017-01-04T03:08:58.837Z,98.33
2017-01-04T03:09:58.409Z,98.43
2017-01-04T03:10:58.743Z,98.43
2017-01-04T03:11:58.318Z,98.8
2017-01-04T03:12:58.670Z,98.05
2017-01-04T03:13:58.231Z,98.61
2017-01-04T03:14:58.572Z,98.33
2017-01-04T03:15:58.531Z,98.24
2017-01-04T03:16:58.485Z,98.33
2017-01-04T03:17:58.441Z,98.52
2017-01-04T03:18:58.400Z,98.43
2017-01-04T03:19:58.385Z,97.96
2017-01-04T03:20:58.316Z,98.33
2017-01-04T03:21:57.885Z,98.05
2017-01-04T03:22:58.227Z,98.52
2017-01-04T03:23:57.796Z,97.86
2017-01-04T03:24:58.136Z,98.24
2017-01-04T03:25:58.095Z,97.86
2017-01-04T03:26:58.054Z,98.43
2017-01-04T03:27:57.640Z,98.33
2017-01-04T03:28:57.964Z,97.29
2017-01-04T03:29:57.922Z,97.86
2017-01-04T03:30:57.883Z,98.14
2017-01-04T03:31:57.834Z,97.29
2017-01-04T03:32:57.792Z,97.77
2017-01-04T03:33:57.749Z,97.2
2017-01-04T03:34:57.708Z,97.1
2017-01-04T03:35:57.661Z,96.73
2017-01-04T03:36:57.616Z,96.91
2017-01-04T03:37:57.583Z,97.01
2017-01-04T03:38:57.534Z,96.35
2017-01-04T03:39:57.493Z,96.63
2017-01-04T03:40:57.079Z,96.16
2017-01-04T03:41:57.403Z,96.25
2017-01-04T03:42:57.359Z,96.06
2017-01-04T03:43:57.317Z,96.25
2017-01-04T03:44:57.272Z,95.87
2017-01-04T03:45:57.234Z,96.06
2017-01-04T03:46:56.805Z,95.78
2017-01-04T03:47:56.776Z,96.06
2017-01-04T03:48:57.100Z,96.06
2017-01-04T03:49:57.058Z,95.68
2017-01-04T03:50:57.013Z,95.4
2017-01-04T03:51:56.972Z,95.03
2017-01-04T03:52:56.925Z,94.93
2017-01-04T03:53:56.888Z,95.03
2017-01-04T03:54:56.455Z,95.31
2017-01-04T03:55:56.801Z,94.74
2017-01-04T03:56:56.755Z,94.74
2017-01-04T03:57:56.330Z,94.93
2017-01-04T03:58:56.284Z,93.99
2017-01-04T03:59:56.630Z,94.08
2017-01-04T04:00:56.585Z,93.89
2017-01-04T04:01:56.153Z,93.7
2017-01-04T04:02:56.498Z,93.7
2017-01-04T04:03:56.452Z,93.23
2017-01-04T04:04:56.409Z,93.42
2017-01-04T04:05:56.365Z,92.85
2017-01-04T04:06:56.332Z,93.13
2017-01-04T04:07:56.280Z,93.04
2017-01-04T04:08:55.850Z,93.13
2017-01-04T04:09:56.195Z,93.13
2017-01-04T04:10:56.150Z,92.66
2017-01-04T04:11:55.721Z,92.85
2017-01-04T04:12:56.060Z,92.85
2017-01-04T04:13:55.635Z,92.1
2017-01-04T04:14:55.975Z,92.19
2017-01-04T04:15:55.547Z,92.19
2017-01-04T04:16:55.892Z,92.38
2017-01-04T04:17:55.859Z,92.29
2017-01-04T04:18:55.424Z,92.19
2017-01-04T04:19:55.760Z,92.1
2017-01-04T04:20:55.716Z,91.82
2017-01-04T04:21:55.288Z,92.19
2017-01-04T04:22:55.630Z,91.91
2017-01-04T04:23:55.203Z,92.1
2017-01-04T04:24:55.544Z,92.29
2017-01-04T04:25:55.502Z,91.53
2017-01-04T04:26:55.458Z,91.53
2017-01-04T04:27:55.416Z,91.82
2017-01-04T04:28:55.372Z,91.34
2017-01-04T04:29:55.331Z,91.34
2017-01-04T04:30:55.286Z,91.15
2017-01-04T04:31:55.241Z,91.06
2017-01-04T04:32:55.198Z,90.96
2017-01-04T04:33:55.156Z,91.15
2017-01-04T04:34:55.111Z,90.96
2017-01-04T04:35:55.075Z,91.25
2017-01-04T04:36:55.026Z,91.15
2017-01-04T04:37:54.984Z,91.15
2017-01-04T04:38:54.941Z,91.06
2017-01-04T04:39:54.516Z,90.3
2017-01-04T04:40:54.856Z,90.49
2017-01-04T04:41:54.809Z,90.49
2017-01-04T04:42:54.771Z,90.4
2017-01-04T04:43:54.725Z,90.4
2017-01-04T04:44:54.686Z,90.49
2017-01-04T04:45:54.643Z,90.59
2017-01-04T04:46:54.211Z,90.49
2017-01-04T04:47:54.565Z,90.02
2017-01-04T04:48:54.505Z,90.3
2017-01-04T04:49:54.464Z,90.11
2017-01-04T04:50:54.424Z,90.49
2017-01-04T04:51:53.997Z,90.59
2017-01-04T04:52:54.344Z,90.77
2017-01-04T04:53:54.297Z,90.87
2017-01-04T04:54:54.248Z,90.59
2017-01-04T04:55:54.208Z,90.49
2017-01-04T04:56:54.159Z,90.68
2017-01-04T04:57:54.122Z,90.4
2017-01-04T04:58:54.078Z,90.49
2017-01-04T04:59:53.647Z,90.49
2017-01-04T05:00:53.990Z,90.4
2017-01-04T05:01:53.946Z,90.49
2017-01-04T05:02:53.515Z,90.77
2017-01-04T05:03:53.858Z,90.68
2017-01-04T05:04:53.814Z,90.49
2017-01-04T05:05:53.772Z,90.49
2017-01-04T05:06:53.728Z,90.3
2017-01-04T05:07:53.305Z,90.3
2017-01-04T05:08:53.257Z,90.4
2017-01-04T05:09:53.602Z,90.11
2017-01-04T05:10:53.554Z,90.3
2017-01-04T05:11:53.521Z,90.49
2017-01-04T05:12:53.504Z,90.02
2017-01-04T05:13:53.428Z,89.64
2017-01-04T05:14:53.386Z,89.73
2017-01-04T05:15:53.342Z,89.73
2017-01-04T05:16:53.299Z,89.54
2017-01-04T05:17:52.874Z,89.03
2017-01-04T05:18:53.213Z,89.22
2017-01-04T05:19:52.783Z,88.55
2017-01-04T05:20:53.128Z,88.36
2017-01-04T05:21:53.083Z,87.61
2017-01-04T05:22:52.655Z,87.13
2017-01-04T05:23:53.002Z,86.47
2017-01-04T05:24:52.568Z,84.3
2017-01-04T05:25:52.908Z,83.45
2017-01-04T05:26:52.864Z,83.92
2017-01-04T05:27:52.820Z,82.98
2017-01-04T05:28:52.777Z,84.01
2017-01-04T05:29:52.733Z,83.92
2017-01-04T05:30:52.307Z,83.83
2017-01-04T05:31:52.653Z,84.3
2017-01-04T05:32:52.604Z,84.49
2017-01-04T05:33:52.564Z,84.2
2017-01-04T05:34:52.520Z,84.77
2017-01-04T05:35:52.477Z,84.39
2017-01-04T05:36:52.440Z,83.54
2017-01-04T05:37:52.403Z,83.64
2017-01-04T05:38:52.348Z,82.98
2017-01-04T05:39:51.918Z,82.79
2017-01-04T05:40:52.262Z,81.74
2017-01-04T05:41:52.216Z,82.22
2017-01-04T05:42:52.177Z,82.03
2017-01-04T05:43:52.132Z,80.9
2017-01-04T05:44:51.702Z,81.46
2017-01-04T05:45:52.042Z,81.46
2017-01-04T05:46:52.002Z,82.31
2017-01-04T05:47:51.963Z,83.45
2017-01-04T05:48:51.914Z,83.64
2017-01-04T05:49:51.871Z,83.92
2017-01-04T05:50:51.440Z,84.2
2017-01-04T05:51:51.395Z,85.43
2017-01-04T05:52:51.739Z,86
2017-01-04T05:53:51.696Z,87.13
2017-01-04T05:54:51.652Z,87.98
2017-01-04T05:55:51.611Z,88.27
2017-01-04T05:56:51.180Z,88.17
2017-01-04T05:57:51.526Z,89.59
2017-01-04T05:58:51.481Z,89.78
2017-01-04T05:59:51.053Z,90.25
2017-01-04T06:00:51.396Z,92.14
2017-01-04T06:01:51.351Z,93.75
2017-01-04T06:02:51.307Z,94.51
2017-01-04T06:03:51.263Z,94.79
2017-01-04T06:04:51.222Z,95.36
2017-01-04T06:05:51.176Z,96.3
2017-01-04T06:06:51.134Z,97.34
2017-01-04T06:07:51.090Z,97.44
2017-01-04T06:08:50.663Z,97.91
2017-01-04T06:09:51.004Z,98.38
2017-01-04T06:10:50.572Z,98.38
2017-01-04T06:11:50.915Z,98.66
2017-01-04T06:12:50.873Z,98.47
2017-01-04T06:13:50.828Z,99.04
2017-01-04T06:14:50.788Z,98.76
2017-01-04T06:15:50.742Z,99.27
2017-01-04T06:16:50.312Z,99.33
2017-01-04T06:17:50.268Z,99.33
2017-01-04T06:18:50.225Z,99.99
2017-01-04T06:19:50.186Z,99.75
2017-01-04T06:20:50.532Z,99.75
2017-01-04T06:21:50.484Z,99.42
2017-01-04T06:22:50.459Z,99.94
2017-01-04T06:23:50.400Z,99.94
2017-01-04T06:24:49.965Z,99.8
2017-01-04T06:25:50.307Z,99.99
2017-01-04T06:26:50.268Z,99.99
2017-01-04T06:27:50.220Z,99.99
2017-01-04T06:28:50.176Z,99.71
2017-01-04T06:29:50.137Z,99.99
2017-01-04T06:30:50.093Z,99.99
2017-01-04T06:31:49.660Z,99.99
2017-01-04T06:32:50.006Z,99.99
2017-01-04T06:33:49.958Z,99.99
2017-01-04T06:34:49.533Z,99.99
2017-01-04T06:35:49.875Z,99.99
2017-01-04T06:36:49.828Z,99.99
2017-01-04T06:37:49.792Z,99.61
2017-01-04T06:38:49.742Z,99.99
2017-01-04T06:39:49.698Z,98.85
2017-01-04T06:40:49.275Z,99.14
2017-01-04T06:41:49.625Z,98.95
2017-01-04T06:42:49.574Z,99.14
2017-01-04T06:43:49.526Z,98.47
2017-01-04T06:44:49.484Z,98.1
2017-01-04T06:45:49.446Z,98.19
2017-01-04T06:46:49.393Z,97.91
2017-01-04T06:47:49.356Z,98.19
2017-01-04T06:48:48.924Z,98
2017-01-04T06:49:49.271Z,98.19
2017-01-04T06:50:49.222Z,98.28
2017-01-04T06:51:49.177Z,98.38
2017-01-04T06:52:49.135Z,98.19
2017-01-04T06:53:49.094Z,98.19
2017-01-04T06:54:48.661Z,98.57
2017-01-04T06:55:49.010Z,99.04
2017-01-04T06:56:48.972Z,98.76
2017-01-04T06:57:48.917Z,98.95
2017-01-04T06:58:48.877Z,98.85
2017-01-04T06:59:48.832Z,98.95
2017-01-04T07:00:48.787Z,98.95
2017-01-04T07:01:48.747Z,98.95
2017-01-04T07:02:48.713Z,99.14
2017-01-04T07:03:48.657Z,98.85
2017-01-04T07:04:48.228Z,98.66
2017-01-04T07:05:48.576Z,99.14
2017-01-04T07:06:48.533Z,98.28
2017-01-04T07:07:48.488Z,98.57
2017-01-04T07:08:48.056Z,98.19
2017-01-04T07:09:48.400Z,98.28
2017-01-04T07:10:47.972Z,98.28
2017-01-04T07:11:48.310Z,98.47
2017-01-04T07:12:47.908Z,98.38
2017-01-04T07:13:48.224Z,98.38
2017-01-04T07:14:47.798Z,98.19
2017-01-04T07:15:48.139Z,98.19
2017-01-04T07:16:48.091Z,98.47
2017-01-04T07:17:48.061Z,98.38
2017-01-04T07:18:47.625Z,98.57
2017-01-04T07:19:47.965Z,97.44
2017-01-04T07:20:47.920Z,98.19
2017-01-04T07:21:47.878Z,98.19
2017-01-04T07:22:47.834Z,97.34
2017-01-04T07:23:47.790Z,97.15
2017-01-04T07:24:47.747Z,96.96
2017-01-04T07:25:47.700Z,97.34
2017-01-04T07:26:47.272Z,97.06
2017-01-04T07:27:47.616Z,97.15
2017-01-04T07:28:47.575Z,96.78
2017-01-04T07:29:47.528Z,96.96
2017-01-04T07:30:47.099Z,97.15
2017-01-04T07:31:47.440Z,96.59
2017-01-04T07:32:47.399Z,96.02
2017-01-04T07:33:47.355Z,96.49
2017-01-04T07:34:47.311Z,96.11
2017-01-04T07:35:47.273Z,96.3
2017-01-04T07:36:47.227Z,96.3
2017-01-04T07:37:47.183Z,96.59
2017-01-04T07:38:46.752Z,96.59
2017-01-04T07:39:47.099Z,96.59
2017-01-04T07:40:47.051Z,96.11
2017-01-04T07:41:47.012Z,96.11
2017-01-04T07:42:46.578Z,95.83
2017-01-04T07:43:46.920Z,95.54
2017-01-04T07:44:46.878Z,95.36
2017-01-04T07:45:46.835Z,95.26
2017-01-04T07:46:46.795Z,95.17
2017-01-04T07:47:46.361Z,94.89
2017-01-04T07:48:46.321Z,95.36
2017-01-04T07:49:46.663Z,95.26
2017-01-04T07:50:46.618Z,94.98
2017-01-04T07:51:46.190Z,95.4
2017-01-04T07:52:46.146Z,95.54
2017-01-04T07:53:46.489Z,95.59
2017-01-04T07:54:46.067Z,96.07
2017-01-04T07:55:46.017Z,95.78
2017-01-04T07:56:46.001Z,95.97
2017-01-04T07:57:46.317Z,94.93
2017-01-04T07:58:46.274Z,94.65
2017-01-04T07:59:46.233Z,94.08
2017-01-04T08:00:46.192Z,94.18
2017-01-04T08:01:46.145Z,94.18
2017-01-04T08:02:46.100Z,93.89
2017-01-04T08:03:46.056Z,94.18
2017-01-04T08:04:46.014Z,94.08
2017-01-04T08:05:45.969Z,94.27
2017-01-04T08:06:45.929Z,94.08
2017-01-04T08:07:45.499Z,94.18
2017-01-04T08:08:45.841Z,93.8
2017-01-04T08:09:45.797Z,93.99
2017-01-04T08:10:45.757Z,94.56
2017-01-04T08:11:45.716Z,94.18
2017-01-04T08:12:45.670Z,94.18
2017-01-04T08:13:45.626Z,94.37
2017-01-04T08:14:45.196Z,94.08
2017-01-04T08:15:45.153Z,93.99
2017-01-04T08:16:45.495Z,93.7
2017-01-04T08:17:45.450Z,93.42
2017-01-04T08:18:45.409Z,93.7
2017-01-04T08:19:45.368Z,93.51
2017-01-04T08:20:45.323Z,93.7
2017-01-04T08:21:45.280Z,93.32
2017-01-04T08:22:45.236Z,93.51
2017-01-04T08:23:45.196Z,93.13
2017-01-04T08:24:45.150Z,92.94
2017-01-04T08:25:45.116Z,92.19
2017-01-04T08:26:45.064Z,92.47
2017-01-04T08:27:45.033Z,92.66
2017-01-04T08:28:44.979Z,92.47
2017-01-04T08:29:44.936Z,92.47
2017-01-04T08:30:44.899Z,92.19
2017-01-04T08:31:44.849Z,92.47
2017-01-04T08:32:44.813Z,91.91
2017-01-04T08:33:44.766Z,91.62
2017-01-04T08:34:44.729Z,91.43
2017-01-04T08:35:44.678Z,91.62
2017-01-04T08:36:44.638Z,91.62
2017-01-04T08:37:44.598Z,91.62
2017-01-04T08:38:44.553Z,91.53
2017-01-04T08:39:44.124Z,91.81
2017-01-04T08:40:44.080Z,91.24
2017-01-04T08:41:44.429Z,90.96
2017-01-04T08:42:44.379Z,90.96
2017-01-04T08:43:44.340Z,91.15
2017-01-04T08:44:43.910Z,90.96
2017-01-04T08:45:44.260Z,91.24
2017-01-04T08:46:44.211Z,90.49
2017-01-04T08:47:43.783Z,90.86
2017-01-04T08:48:44.131Z,89.83
2017-01-04T08:49:43.698Z,88.69
2017-01-04T08:50:44.042Z,88.31
2017-01-04T08:51:43.624Z,88.5
2017-01-04T08:52:43.570Z,88.79
2017-01-04T08:53:43.914Z,88.31
2017-01-04T08:54:43.872Z,87.65
2017-01-04T08:55:43.445Z,86.71
2017-01-04T08:56:43.786Z,86.42
2017-01-04T08:57:43.357Z,86.42
2017-01-04T08:58:43.319Z,85.76
2017-01-04T08:59:43.661Z,85.57
2017-01-04T09:00:43.616Z,85.76
2017-01-04T09:01:43.574Z,85.85
2017-01-04T09:02:43.532Z,85.57
2017-01-04T09:03:43.492Z,85.95
2017-01-04T09:04:43.063Z,85.57
2017-01-04T09:05:43.404Z,85.85
2017-01-04T09:06:43.363Z,86.04
2017-01-04T09:07:42.936Z,85.57
2017-01-04T09:08:43.274Z,85.19
2017-01-04T09:09:43.252Z,85.38
2017-01-04T09:10:43.192Z,85.47
2017-01-04T09:11:42.763Z,84.91
2017-01-04T09:12:42.720Z,84.53
2017-01-04T09:13:43.063Z,84.34
2017-01-04T09:14:43.018Z,84.16
2017-01-04T09:15:42.594Z,84.16
2017-01-04T09:16:42.940Z,83.91
2017-01-04T09:17:42.895Z,83.97
2017-01-04T09:18:42.467Z,84.1
2017-01-04T09:19:42.812Z,83.49
2017-01-04T09:20:42.384Z,83.49
2017-01-04T09:21:42.341Z,83.21
2017-01-04T09:22:42.681Z,83.21
2017-01-04T09:23:42.642Z,82.92
2017-01-04T09:24:42.608Z,82.64
2017-01-04T09:25:42.555Z,82.73
2017-01-04T09:26:42.509Z,82.83
2017-01-04T09:27:42.472Z,82.73
2017-01-04T09:28:42.044Z,82.17
2017-01-04T09:29:42.389Z,81.7
2017-01-04T09:30:41.961Z,81.79
2017-01-04T09:31:41.916Z,81.79
2017-01-04T09:32:42.259Z,81.93
2017-01-04T09:33:42.215Z,81.83
2017-01-04T09:34:42.171Z,81.64
2017-01-04T09:35:42.160Z,81.07
2017-01-04T09:36:41.705Z,81.36
2017-01-04T09:37:42.047Z,81.17
2017-01-04T09:38:41.618Z,81.13
2017-01-04T09:39:41.959Z,81.36
2017-01-04T09:40:41.928Z,82.02
2017-01-04T09:41:41.875Z,81.83
2017-01-04T09:42:41.449Z,81.26
2017-01-04T09:43:41.792Z,81.36
2017-01-04T09:44:41.749Z,81.26
2017-01-04T09:45:41.320Z,81.13
2017-01-04T09:46:41.280Z,81.41
2017-01-04T09:47:41.622Z,81.32
2017-01-04T09:48:41.581Z,81.22
2017-01-04T09:49:41.152Z,81.22
2017-01-04T09:50:41.493Z,81.93
2017-01-04T09:51:41.454Z,81.6
2017-01-04T09:52:41.026Z,81.64
2017-01-04T09:53:40.984Z,81.64
2017-01-04T09:54:40.941Z,82.21
2017-01-04T09:55:41.280Z,82.02
2017-01-04T09:56:41.241Z,82.02
2017-01-04T09:57:41.197Z,81.55
2017-01-04T09:58:41.156Z,81.93
2017-01-04T09:59:40.727Z,81.55
2017-01-04T10:00:41.077Z,81.74
2017-01-04T10:01:41.033Z,81.64
2017-01-04T10:02:40.984Z,82.35
2017-01-04T10:03:40.941Z,81.83
2017-01-04T10:04:40.902Z,82.02
2017-01-04T10:05:40.858Z,81.79
2017-01-04T10:06:40.815Z,82.17
2017-01-04T10:07:40.770Z,81.98
2017-01-04T10:08:40.730Z,83.06
2017-01-04T10:09:40.308Z,82.68
2017-01-04T10:10:40.258Z,82.5
2017-01-04T10:11:40.219Z,82.68
2017-01-04T10:12:40.560Z,82.21
2017-01-04T10:13:40.519Z,82.4
2017-01-04T10:14:40.477Z,82.45
2017-01-04T10:15:40.435Z,82.4
2017-01-04T10:16:40.391Z,82.78
2017-01-04T10:17:40.348Z,82.97
2017-01-04T10:18:40.307Z,82.87
2017-01-04T10:19:40.261Z,82.78
2017-01-04T10:20:39.839Z,82.87
2017-01-04T10:21:39.793Z,82.68
2017-01-04T10:22:40.138Z,82.68
2017-01-04T10:23:40.093Z,82.87
2017-01-04T10:24:39.666Z,82.78
2017-01-04T10:25:40.009Z,82.87
2017-01-04T10:26:39.583Z,82.78
2017-01-04T10:27:39.924Z,82.68
2017-01-04T10:28:39.881Z,82.83
2017-01-04T10:29:39.460Z,82.83
2017-01-04T10:30:39.412Z,83.11
2017-01-04T10:31:39.768Z,82.97
2017-01-04T10:32:39.710Z,83.15
2017-01-04T10:33:39.667Z,83.02
2017-01-04T10:34:39.625Z,83.59
2017-01-04T10:35:39.585Z,83.72
2017-01-04T10:36:39.164Z,83.68
2017-01-04T10:37:39.499Z,83.59
2017-01-04T10:38:39.458Z,83.34
2017-01-04T10:39:39.414Z,83.59
2017-01-04T10:40:38.990Z,83.49
2017-01-04T10:41:39.329Z,83.68
2017-01-04T10:42:39.288Z,83.3
2017-01-04T10:43:38.861Z,83.49
2017-01-04T10:44:39.203Z,83.59
2017-01-04T10:45:39.159Z,82.83
2017-01-04T10:46:38.734Z,83.02
2017-01-04T10:47:39.075Z,82.73
2017-01-04T10:48:39.036Z,82.83
2017-01-04T10:49:39.022Z,83.97
2017-01-04T10:50:38.948Z,83.97
2017-01-04T10:51:38.906Z,83.02
2017-01-04T10:52:38.861Z,83.3
2017-01-04T10:53:38.436Z,84.16
2017-01-04T10:54:38.775Z,83.49
2017-01-04T10:55:38.351Z,83.3
2017-01-04T10:56:38.693Z,83.3
2017-01-04T10:57:38.652Z,83.59
2017-01-04T10:58:38.607Z,83.49
2017-01-04T10:59:38.570Z,83.59
2017-01-04T11:00:38.523Z,83.06
2017-01-04T11:01:38.880Z,83.06
2017-01-04T11:02:38.443Z,83.06
2017-01-04T11:03:38.395Z,83.02
2017-01-04T11:04:38.356Z,83.25
2017-01-04T11:05:38.317Z,83.15
2017-01-04T11:06:38.272Z,83.11
2017-01-04T11:07:37.841Z,83.15
2017-01-04T11:08:38.184Z,83.34
2017-01-04T11:09:38.142Z,82.97
2017-01-04T11:10:38.102Z,82.5
2017-01-04T11:11:38.070Z,82.21
2017-01-04T11:12:38.021Z,82.21
2017-01-04T11:13:37.975Z,81.93
2017-01-04T11:14:37.936Z,82.02
2017-01-04T11:15:37.885Z,81.36
2017-01-04T11:16:37.846Z,81.93
2017-01-04T11:17:37.803Z,81.36
2017-01-04T11:18:37.762Z,81.55
2017-01-04T11:19:37.334Z,81.55
2017-01-04T11:20:37.681Z,81.64
2017-01-04T11:21:37.636Z,81.26
2017-01-04T11:22:37.593Z,80.51
2017-01-04T11:23:37.547Z,80.69
2017-01-04T11:24:37.507Z,80.98
2017-01-04T11:25:37.465Z,80.88
2017-01-04T11:26:37.421Z,80.98
2017-01-04T11:27:36.998Z,80.79
2017-01-04T11:28:36.953Z,80.98
2017-01-04T11:29:37.295Z,80.69
2017-01-04T11:30:36.868Z,80.69
2017-01-04T11:31:37.211Z,80.98
2017-01-04T11:32:37.169Z,80.98
2017-01-04T11:33:37.127Z,80.88
2017-01-04T11:34:36.699Z,81.36
2017-01-04T11:35:37.043Z,81.45
2017-01-04T11:36:37.001Z,81.36
2017-01-04T11:37:36.958Z,81.17
2017-01-04T11:38:36.920Z,81.45
2017-01-04T11:39:36.878Z,81.26
2017-01-04T11:40:36.865Z,81.36
2017-01-04T11:41:36.787Z,81.36
2017-01-04T11:42:36.748Z,81.45
2017-01-04T11:43:36.703Z,81.36
2017-01-04T11:44:36.661Z,81.55
2017-01-04T11:45:36.266Z,80.88
2017-01-04T11:46:36.190Z,80.98
2017-01-04T11:47:36.539Z,80.98
2017-01-04T11:48:36.493Z,80.98
2017-01-04T11:49:36.448Z,81.07
2017-01-04T11:50:36.410Z,80.98
2017-01-04T11:51:36.368Z,80.69
2017-01-04T11:52:36.326Z,80.51
2017-01-04T11:53:36.281Z,80.88
2017-01-04T11:54:35.858Z,80.79
2017-01-04T11:55:36.202Z,80.79
2017-01-04T11:56:36.164Z,80.69
2017-01-04T11:57:36.119Z,79.94
2017-01-04T11:58:35.689Z,80.51
2017-01-04T11:59:36.034Z,80.41
2017-01-04T12:00:35.608Z,80.32
2017-01-04T12:01:35.948Z,79.85
2017-01-04T12:02:35.903Z,79.85
2017-01-04T12:03:35.866Z,79.94
2017-01-04T12:04:35.441Z,79.47
2017-01-04T12:05:35.776Z,79.75
2017-01-04T12:06:35.352Z,79.85
2017-01-04T12:07:35.697Z,79.85
2017-01-04T12:08:35.654Z,79.37
2017-01-04T12:09:35.227Z,79.66
2017-01-04T12:10:35.566Z,79.66
2017-01-04T12:11:35.526Z,79.37
2017-01-04T12:12:35.486Z,79.75
2017-01-04T12:13:35.446Z,79.85
2017-01-04T12:14:35.400Z,79.28
2017-01-04T12:15:35.360Z,79.47
2017-01-04T12:16:34.928Z,79.66
2017-01-04T12:17:35.279Z,79.85
2017-01-04T12:18:35.232Z,79.66
2017-01-04T12:19:34.811Z,79.85
2017-01-04T12:20:34.771Z,79.94
2017-01-04T12:21:35.110Z,80.04
2017-01-04T12:22:35.068Z,80.69
2017-01-04T12:23:34.641Z,80.22
2017-01-04T12:24:34.600Z,79.94
2017-01-04T12:25:34.943Z,80.26
2017-01-04T12:26:34.900Z,80.41
2017-01-04T12:27:34.504Z,80.74
2017-01-04T12:28:34.819Z,80.55
2017-01-04T12:29:34.776Z,80.55
2017-01-04T12:30:34.737Z,80.74
2017-01-04T12:31:34.696Z,80.64
2017-01-04T12:32:34.648Z,80.83
2017-01-04T12:33:34.609Z,80.93
2017-01-04T12:34:34.567Z,80.74
2017-01-04T12:35:34.526Z,80.93
2017-01-04T12:36:34.489Z,81.68
2017-01-04T12:37:34.446Z,81.68
2017-01-04T12:38:34.400Z,81.4
2017-01-04T12:39:34.359Z,81.4
2017-01-04T12:40:33.937Z,81.21
2017-01-04T12:41:34.280Z,81.68
2017-01-04T12:42:34.234Z,81.96
2017-01-04T12:43:34.192Z,81.4
2017-01-04T12:44:33.765Z,82.44
2017-01-04T12:45:34.111Z,82.34
2017-01-04T12:46:34.068Z,81.87
2017-01-04T12:47:33.641Z,82.25
2017-01-04T12:48:33.599Z,82.21
2017-01-04T12:49:33.558Z,82.15
2017-01-04T12:50:33.899Z,82.82
2017-01-04T12:51:33.863Z,82.31
2017-01-04T12:52:33.817Z,82.91
2017-01-04T12:53:33.779Z,82.82
2017-01-04T12:54:33.733Z,82.82